Time;durP1;ratioP1;P1;durP2;ratioP2;P2;SDS_P1;SDS_P2;PMS_P1;PMS_P2;Temp;Humidity;BMP_temperature;BMP_pressure;BME280_temperature;BME280_humidity;BME280_pressure;Samples;Min_cycle;Max_cycle;Signal;HPM_P1;HPM_P2
2022/09/08 04:06:47;;;;;;;;;53.67;43.33;;;;;;;;5935934;31;10000250;-61
2022/09/08 04:12:51;;;;;;;;;50.75;43.25;;;;;;;;6488603;31;8924;-62
2022/09/08 09:11:59;;;;;;;;;22.25;21.75;;;;;;;;6490372;39;9005;-63
2022/09/08 09:18:42;;;;;;;;;20.00;20.00;;;;;;;;6488889;46;8996;-63
2022/09/08 09:25:11;;;;;;;;;20.75;20.50;;;;;;;;6491554;31;8929;-62
2022/09/08 09:31:38;;;;;;;;;20.75;19.00;;;;;;;;6490739;39;8866;-62
2022/09/08 09:37:44;;;;;;;;;18.25;18.25;;;;;;;;6491251;39;9056;-62
2022/09/08 09:44:00;;;;;;;;;21.25;20.00;;;;;;;;6489022;46;8967;-63
2022/09/08 09:50:15;;;;;;;;;18.00;18.00;;;;;;;;6491514;31;9017;-61
2022/09/08 09:56:42;;;;;;;;;21.50;20.25;;;;;;;;6489913;31;8896;-62
2022/09/08 10:02:56;;;;;;;;;27.25;25.75;;;;;;;;6489934;39;8920;-62
2022/09/08 10:09:31;;;;;;;;;16.75;16.50;;;;;;;;6489458;31;8932;-64
2022/09/08 10:16:18;;;;;;;;;30.25;29.75;;;;;;;;6487702;39;8900;-63
2022/09/08 10:22:44;;;;;;;;;16.25;16.00;;;;;;;;6487512;39;9542;-63
2022/09/08 10:29:10;;;;;;;;;19.75;19.25;;;;;;;;6488637;31;9345;-62
2022/09/08 10:35:47;;;;;;;;;13.00;13.00;;;;;;;;6485295;31;8908;-63
2022/09/08 10:42:17;;;;;;;;;12.50;12.50;;;;;;;;6487878;39;8871;-62
2022/09/08 10:48:48;;;;;;;;;13.75;13.75;;;;;;;;6487349;31;9602;-63
2022/09/08 10:55:34;;;;;;;;;16.75;16.75;;;;;;;;6488494;31;9132;-62
2022/09/08 11:02:26;;;;;;;;;11.75;11.50;;;;;;;;6487409;39;8981;-63
2022/09/08 11:08:53;;;;;;;;;17.50;16.25;;;;;;;;6487103;39;8987;-63
2022/09/08 11:15:17;;;;;;;;;20.25;17.75;;;;;;;;6487506;39;8936;-64
2022/09/08 11:22:04;;;;;;;;;12.50;12.50;;;;;;;;6489083;31;8920;-63
2022/09/08 11:28:25;;;;;;;;;13.75;13.50;;;;;;;;6486579;39;8912;-64
2022/09/08 11:34:33;;;;;;;;;17.75;16.50;;;;;;;;6487218;31;8981;-65
2022/09/08 11:41:16;;;;;;;;;15.75;14.50;;;;;;;;6488038;31;9542;-63
2022/09/08 11:48:23;;;;;;;;;14.25;13.75;;;;;;;;6486280;46;8992;-63
2022/09/08 11:54:56;;;;;;;;;18.00;15.75;;;;;;;;6484902;31;8943;-63
2022/09/08 12:01:41;;;;;;;;;15.25;14.25;;;;;;;;6484772;39;8947;-64
2022/09/08 12:08:49;;;;;;;;;15.50;14.50;;;;;;;;6483691;39;9123;-63
2022/09/08 12:15:07;;;;;;;;;12.25;12.25;;;;;;;;6480213;31;9117;-65
2022/09/08 12:21:43;;;;;;;;;14.50;13.25;;;;;;;;6485907;31;8932;-62
2022/09/08 12:28:23;;;;;;;;;14.00;13.75;;;;;;;;6483053;39;9435;-61
2022/09/08 12:35:00;;;;;;;;;14.25;13.25;;;;;;;;6481697;39;8985;-62
2022/09/08 12:41:02;;;;;;;;;12.75;12.75;;;;;;;;6483106;47;9119;-62
2022/09/08 12:47:16;;;;;;;;;16.00;15.00;;;;;;;;6484325;39;9562;-64
2022/09/08 12:53:56;;;;;;;;;16.00;13.75;;;;;;;;6484130;47;8947;-61
2022/09/08 13:00:13;;;;;;;;;14.75;13.25;;;;;;;;6484451;39;8942;-61
2022/09/08 13:06:40;;;;;;;;;18.50;18.50;;;;;;;;6484896;31;8891;-61
2022/09/08 13:13:09;;;;;;;;;14.75;14.75;;;;;;;;6484049;31;8952;-62
2022/09/08 13:19:34;;;;;;;;;13.75;13.75;;;;;;;;6486498;46;8924;-62
2022/09/08 13:26:10;;;;;;;;;11.50;11.50;;;;;;;;6485828;46;8923;-62
2022/09/08 13:32:32;;;;;;;;;12.75;12.75;;;;;;;;6484808;39;8896;-64
2022/09/08 13:38:45;;;;;;;;;10.25;9.25;;;;;;;;6485591;46;9042;-63
2022/09/08 13:45:12;;;;;;;;;14.75;13.75;;;;;;;;6485667;39;9052;-61
2022/09/08 13:51:46;;;;;;;;;13.25;13.25;;;;;;;;6305014;36;10000592;-62
2022/09/08 13:58:30;;;;;;;;;15.75;13.00;;;;;;;;6481994;39;9343;-64
2022/09/08 14:05:26;;;;;;;;;14.25;12.25;;;;;;;;6479651;31;9744;-63
2022/09/08 14:11:51;;;;;;;;;13.00;12.50;;;;;;;;6481568;31;8933;-62
2022/09/08 14:18:14;;;;;;;;;18.00;16.50;;;;;;;;6483194;39;8969;-63
2022/09/08 14:24:41;;;;;;;;;10.00;10.00;;;;;;;;6483525;46;8935;-63
2022/09/08 14:31:03;;;;;;;;;14.00;12.50;;;;;;;;6484185;46;8893;-65
2022/09/08 14:37:20;;;;;;;;;45.67;39.00;;;;;;;;6486051;39;9606;-63
2022/09/08 14:44:17;;;;;;;;;13.75;12.25;;;;;;;;6485943;31;8862;-66
2022/09/08 14:50:42;;;;;;;;;11.25;10.75;;;;;;;;6485638;39;8858;-63
2022/09/08 14:57:14;;;;;;;;;12.75;12.00;;;;;;;;6487987;46;8914;-63
2022/09/08 15:03:27;;;;;;;;;11.50;11.00;;;;;;;;6489994;39;9573;-63
2022/09/08 15:09:43;;;;;;;;;13.00;13.00;;;;;;;;6489417;39;8947;-62
2022/09/08 15:15:49;;;;;;;;;17.25;17.25;;;;;;;;6488694;46;8872;-62
2022/09/08 15:21:55;;;;;;;;;12.25;10.75;;;;;;;;6489272;31;8978;-62
2022/09/08 15:28:25;;;;;;;;;11.00;10.50;;;;;;;;6488264;46;8824;-62
2022/09/08 15:34:39;;;;;;;;;56.67;46.00;;;;;;;;6489682;39;9649;-63
2022/09/08 15:41:09;;;;;;;;;16.25;14.50;;;;;;;;6488781;39;9600;-63
2022/09/08 15:47:55;;;;;;;;;12.50;12.50;;;;;;;;6488427;46;8943;-63
2022/09/08 15:54:06;;;;;;;;;23.50;23.00;;;;;;;;6486598;46;8902;-61
2022/09/08 16:00:22;;;;;;;;;15.25;14.25;;;;;;;;6487919;39;8923;-63
2022/09/08 16:06:38;;;;;;;;;17.00;16.50;;;;;;;;6488755;46;9053;-63
2022/09/08 16:13:06;;;;;;;;;14.50;13.00;;;;;;;;6488549;39;8917;-63
2022/09/08 16:19:17;;;;;;;;;21.50;19.75;;;;;;;;6487672;47;9031;-62
2022/09/08 16:25:47;;;;;;;;;18.50;18.50;;;;;;;;6488145;46;8969;-63
2022/09/08 16:32:14;;;;;;;;;18.75;18.25;;;;;;;;6487915;39;8982;-63
2022/09/08 16:38:35;;;;;;;;;29.25;27.25;;;;;;;;6487533;39;9944;-62
2022/09/08 16:44:54;;;;;;;;;29.75;29.75;;;;;;;;6487968;47;8907;-61
2022/09/08 16:51:28;;;;;;;;;27.00;26.25;;;;;;;;6488536;39;8881;-62
2022/09/08 16:58:05;;;;;;;;;30.50;29.25;;;;;;;;6490361;31;8864;-63
2022/09/08 17:04:51;;;;;;;;;32.50;32.00;;;;;;;;6489646;31;8930;-63
2022/09/08 17:11:04;;;;;;;;;26.75;26.75;;;;;;;;6490804;39;9009;-62
2022/09/08 17:17:46;;;;;;;;;32.00;28.75;;;;;;;;6489926;46;8825;-62
2022/09/08 17:24:16;;;;;;;;;37.00;33.00;;;;;;;;6489256;46;8868;-62
2022/09/08 17:30:23;;;;;;;;;38.00;34.33;;;;;;;;6489103;39;8975;-62
2022/09/08 17:36:39;;;;;;;;;38.33;34.67;;;;;;;;6490302;39;8911;-61
2022/09/08 17:42:51;;;;;;;;;55.33;46.00;;;;;;;;6489572;39;8919;-62
2022/09/08 17:49:35;;;;;;;;;50.33;41.33;;;;;;;;6490341;31;8891;-61
2022/09/08 17:56:07;;;;;;;;;53.67;44.67;;;;;;;;6489535;39;8893;-62
2022/09/08 18:02:13;;;;;;;;;56.67;46.00;;;;;;;;6489416;39;8920;-61
2022/09/08 18:08:32;;;;;;;;;53.67;45.33;;;;;;;;6489540;39;8929;-63
2022/09/08 18:14:55;;;;;;;;;54.67;45.67;;;;;;;;6489977;31;8892;-62
2022/09/08 18:21:40;;;;;;;;;55.00;44.00;;;;;;;;6489222;31;9036;-62
2022/09/08 18:28:03;;;;;;;;;53.00;43.33;;;;;;;;6489339;31;9549;-62
2022/09/08 18:34:28;;;;;;;;;49.67;42.00;;;;;;;;6489839;46;8880;-62
2022/09/08 18:40:40;;;;;;;;;50.67;41.67;;;;;;;;6488482;31;8916;-62
2022/09/08 18:47:03;;;;;;;;;48.33;40.67;;;;;;;;6488415;39;8916;-62
2022/09/08 18:53:29;;;;;;;;;53.33;43.00;;;;;;;;6489239;39;8856;-61
2022/09/08 18:59:56;;;;;;;;;52.00;42.67;;;;;;;;6490091;39;9116;-63
2022/09/08 19:06:08;;;;;;;;;50.33;42.67;;;;;;;;6489462;31;8900;-62
2022/09/08 19:12:33;;;;;;;;;50.00;41.67;;;;;;;;6488098;39;8916;-62
2022/09/08 19:18:48;;;;;;;;;50.00;43.67;;;;;;;;6488363;39;8927;-63
2022/09/08 19:25:00;;;;;;;;;46.33;39.00;;;;;;;;6489080;31;8864;-62
2022/09/08 19:31:09;;;;;;;;;54.67;44.33;;;;;;;;6488084;39;8987;-62
2022/09/08 19:37:52;;;;;;;;;44.00;39.00;;;;;;;;6488737;39;8927;-62
2022/09/08 19:44:20;;;;;;;;;40.00;36.00;;;;;;;;6489028;31;8988;-61
2022/09/08 19:50:36;;;;;;;;;41.00;37.00;;;;;;;;6488123;39;9497;-61
2022/09/08 19:56:46;;;;;;;;;36.33;32.67;;;;;;;;6488219;46;8876;-62
2022/09/08 20:03:22;;;;;;;;;39.67;34.67;;;;;;;;6488575;39;8880;-62
2022/09/08 20:09:34;;;;;;;;;43.67;39.00;;;;;;;;6487600;39;8921;-62
2022/09/08 20:15:40;;;;;;;;;38.33;35.00;;;;;;;;6488435;31;8884;-61
2022/09/08 20:21:55;;;;;;;;;39.00;36.00;;;;;;;;6487918;39;8928;-61
2022/09/08 20:28:16;;;;;;;;;45.00;38.67;;;;;;;;6489947;39;9045;-61
2022/09/08 20:35:05;;;;;;;;;38.00;33.00;;;;;;;;6491392;31;9544;-62
2022/09/08 20:41:22;;;;;;;;;37.33;33.00;;;;;;;;6486631;39;8962;-61
2022/09/08 20:47:32;;;;;;;;;31.00;30.33;;;;;;;;6486750;39;9587;-62
2022/09/08 20:53:58;;;;;;;;;29.33;27.00;;;;;;;;6486499;39;8925;-61
2022/09/08 21:00:06;;;;;;;;;33.33;31.00;;;;;;;;6486219;46;8903;-61
2022/09/08 21:06:22;;;;;;;;;30.67;29.67;;;;;;;;6485769;31;8957;-62
2022/09/08 21:12:27;;;;;;;;;25.00;24.67;;;;;;;;6489908;39;8904;-61
2022/09/08 21:18:41;;;;;;;;;26.33;26.00;;;;;;;;6489882;39;8951;-61
2022/09/08 21:25:00;;;;;;;;;27.33;26.67;;;;;;;;6489804;39;8853;-61
2022/09/08 21:31:41;;;;;;;;;24.33;24.00;;;;;;;;6489825;31;8876;-62
2022/09/08 21:38:10;;;;;;;;;25.67;25.00;;;;;;;;6490182;39;8884;-62
2022/09/08 21:44:34;;;;;;;;;26.67;21.67;;;;;;;;6488814;31;8936;-60
2022/09/08 21:50:56;;;;;;;;;27.33;24.67;;;;;;;;6490026;39;8880;-61
2022/09/08 21:57:07;;;;;;;;;25.00;24.33;;;;;;;;6489818;39;9582;-62
2022/09/08 22:03:44;;;;;;;;;25.00;25.00;;;;;;;;6489497;39;8975;-63
2022/09/08 22:09:50;;;;;;;;;22.00;22.00;;;;;;;;6489814;46;8916;-62
2022/09/08 22:16:06;;;;;;;;;27.00;24.33;;;;;;;;6489040;39;8884;-61
2022/09/08 22:22:14;;;;;;;;;24.33;22.67;;;;;;;;6488596;46;9023;-61
2022/09/08 22:28:32;;;;;;;;;25.00;23.00;;;;;;;;6489708;39;8832;-61
2022/09/08 22:35:09;;;;;;;;;25.00;24.67;;;;;;;;6489128;39;8927;-62
2022/09/08 22:41:27;;;;;;;;;23.33;23.00;;;;;;;;6488492;39;8905;-60
2022/09/08 22:47:40;;;;;;;;;25.67;23.00;;;;;;;;6488747;46;8900;-61
2022/09/08 22:53:58;;;;;;;;;20.33;19.67;;;;;;;;6488457;46;8892;-62
2022/09/08 23:00:33;;;;;;;;;21.67;19.00;;;;;;;;6489231;39;8900;-61
2022/09/08 23:06:44;;;;;;;;;26.00;25.33;;;;;;;;6489601;31;8864;-61
2022/09/08 23:13:10;;;;;;;;;22.33;19.33;;;;;;;;6489073;31;8968;-61
2022/09/08 23:19:21;;;;;;;;;19.00;19.00;;;;;;;;6488538;31;9140;-62
2022/09/08 23:25:44;;;;;;;;;19.00;19.00;;;;;;;;6489090;39;9119;-61
2022/09/08 23:32:14;;;;;;;;;18.00;18.00;;;;;;;;6488616;39;8873;-61
2022/09/08 23:38:18;;;;;;;;;22.00;21.00;;;;;;;;6488801;39;8884;-61
2022/09/08 23:44:24;;;;;;;;;22.33;21.00;;;;;;;;6488802;39;9599;-60
2022/09/08 23:50:32;;;;;;;;;20.00;19.33;;;;;;;;6487842;46;8951;-61
2022/09/08 23:56:40;;;;;;;;;21.33;20.67;;;;;;;;6488316;31;9084;-61
